createdAt,value
2018-02-21T08:11:18.847Z,53.10
2018-02-21T08:13:48.431Z,55.99
2018-02-21T08:16:18.061Z,55.61
2018-02-21T08:18:47.824Z,56.79
2018-02-21T08:21:17.634Z,56.45
2018-02-21T08:23:47.260Z,55.97
2018-02-21T08:26:17.135Z,54.94
2018-02-21T08:28:47.158Z,56.14
2018-02-21T08:31:17.296Z,57.69
2018-02-21T08:33:46.987Z,57.70
2018-02-21T08:36:16.570Z,57.24
2018-02-21T08:38:46.372Z,57.63
2018-02-21T08:41:18.186Z,58.72
2018-02-21T08:43:47.708Z,59.55
2018-02-21T08:46:17.185Z,58.98
2018-02-21T08:48:46.580Z,59.59
2018-02-21T08:51:16.189Z,58.76
2018-02-21T08:53:45.837Z,57.30
2018-02-21T08:56:16.567Z,58.56
2018-02-21T08:58:46.848Z,58.72
2018-02-21T09:01:17.089Z,58.73
2018-02-21T09:03:46.639Z,57.33
2018-02-21T09:06:16.076Z,55.88
2018-02-21T09:08:47.790Z,55.15
2018-02-21T09:11:17.548Z,55.59
2018-02-21T09:13:46.939Z,54.77
2018-02-21T09:16:16.806Z,53.78
2018-02-21T09:18:46.395Z,53.08
2018-02-21T09:21:16.242Z,52.56
2018-02-21T09:23:46.586Z,52.81
2018-02-21T09:26:16.216Z,52.51
2018-02-21T09:28:46.665Z,52.10
2018-02-21T09:31:16.172Z,51.56
2018-02-21T09:33:45.871Z,51.53
2018-02-21T09:36:16.194Z,48.94
2018-02-21T09:38:45.795Z,48.42
2018-02-21T09:41:16.567Z,49.09
2018-02-21T09:43:46.175Z,51.15
2018-02-21T09:46:17.024Z,51.83
2018-02-21T09:48:48.655Z,51.43
2018-02-21T09:51:23.563Z,51.61
2018-02-21T09:53:54.320Z,51.85
2018-02-21T09:56:24.266Z,52.45
2018-02-21T09:58:54.306Z,52.53
2018-02-21T10:01:25.496Z,53.93
2018-02-21T10:03:57.196Z,55.74
2018-02-21T10:06:29.949Z,54.75
2018-02-21T10:09:11.041Z,54.74
2018-02-21T10:11:44.750Z,55.02
2018-02-21T10:14:17.775Z,54.51
2018-02-21T10:16:48.546Z,56.44
2018-02-21T10:19:18.013Z,57.65
2018-02-21T10:21:47.906Z,57.56
2018-02-21T10:24:18.037Z,58.14
2018-02-21T10:26:58.956Z,57.96
2018-02-21T10:29:29.195Z,55.39
2018-02-21T10:32:03.403Z,55.17
2018-02-21T10:34:33.096Z,55.01
2018-02-21T10:37:02.814Z,54.46
2018-02-21T10:39:33.025Z,55.43
2018-02-21T10:42:03.084Z,54.83
2018-02-21T10:44:32.715Z,54.91
2018-02-21T10:47:03.434Z,54.17
2018-02-21T10:49:32.915Z,52.82
2018-02-21T10:52:03.817Z,52.41
2018-02-21T10:54:34.204Z,52.69
2018-02-21T10:57:03.962Z,50.96
2018-02-21T10:59:33.412Z,50.75
2018-02-21T11:02:05.934Z,50.11
2018-02-21T11:04:36.125Z,50.40
2018-02-21T11:07:05.594Z,49.38
2018-02-21T11:09:34.975Z,48.49
2018-02-21T11:12:04.528Z,50.79
2018-02-21T11:14:34.261Z,51.09
2018-02-21T11:17:04.917Z,50.33
2018-02-21T11:19:35.374Z,49.52
2018-02-21T11:22:05.221Z,49.56
2018-02-21T11:24:35.077Z,49.62
2018-02-21T11:27:04.669Z,49.58
2018-02-21T11:29:34.472Z,50.03
2018-02-21T11:32:04.588Z,50.45
2018-02-21T11:34:34.518Z,50.56
2018-02-21T11:37:05.142Z,49.92
2018-02-21T11:39:35.601Z,50.24
2018-02-21T11:42:06.080Z,48.54
2018-02-21T11:44:35.720Z,47.65
2018-02-21T11:47:05.209Z,47.68
2018-02-21T11:49:34.787Z,49.42
2018-02-21T11:52:05.154Z,50.94
2018-02-21T11:54:34.831Z,51.90
2018-02-21T11:57:05.658Z,50.82
2018-02-21T11:59:35.846Z,51.21
2018-02-21T12:02:05.764Z,51.62
2018-02-21T12:04:35.104Z,51.28
2018-02-21T12:07:04.648Z,50.85
2018-02-21T12:09:34.158Z,51.95
2018-02-21T12:12:03.776Z,51.16
2018-02-21T12:14:33.592Z,52.01
2018-02-21T12:17:03.468Z,51.38
2018-02-21T12:19:32.902Z,49.74
2018-02-21T12:22:02.413Z,51.30
2018-02-21T12:24:31.949Z,52.35
2018-02-21T12:27:01.435Z,52.13
2018-02-21T12:29:31.061Z,51.77
2018-02-21T12:32:01.358Z,51.62
2018-02-21T12:34:30.795Z,51.95
2018-02-21T12:37:00.548Z,52.02
2018-02-21T12:39:35.097Z,52.79
2018-02-21T12:42:04.544Z,53.81
2018-02-21T12:44:34.145Z,53.96
2018-02-21T12:47:03.874Z,51.29
2018-02-21T12:49:33.343Z,52.11
2018-02-21T12:52:02.938Z,51.56
2018-02-21T12:54:34.233Z,51.90
2018-02-21T12:57:04.591Z,52.36
2018-02-21T12:59:34.376Z,52.75
2018-02-21T13:02:04.080Z,53.29
2018-02-21T13:04:33.599Z,53.54
2018-02-21T13:07:03.145Z,53.09
2018-02-21T13:09:32.796Z,53.14
2018-02-21T13:12:02.597Z,53.94
2018-02-21T13:14:33.347Z,54.38
2018-02-21T13:17:02.905Z,55.06
2018-02-21T13:19:32.569Z,56.16
2018-02-21T13:22:02.286Z,56.68
2018-02-21T13:24:31.790Z,56.97
2018-02-21T13:27:02.287Z,56.78
2018-02-21T13:29:32.690Z,56.77
2018-02-21T13:32:02.185Z,57.10
2018-02-21T13:34:31.669Z,55.91
2018-02-21T13:37:01.607Z,55.91
2018-02-21T13:39:31.953Z,55.60
2018-02-21T13:42:01.549Z,55.73
2018-02-21T13:44:31.224Z,55.60
2018-02-21T13:47:00.728Z,53.95
2018-02-21T13:49:30.256Z,54.16
2018-02-21T13:51:59.813Z,54.70
2018-02-21T13:54:30.300Z,54.52
2018-02-21T13:57:25.277Z,55.74
2018-02-21T13:59:56.618Z,55.48
2018-02-21T14:02:37.305Z,55.45
2018-02-21T14:05:07.269Z,55.95
2018-02-21T14:07:37.660Z,56.75
2018-02-21T14:10:07.975Z,56.99
2018-02-21T14:12:37.617Z,55.93
2018-02-21T14:15:07.246Z,56.09
2018-02-21T14:17:36.607Z,56.07
2018-02-21T14:20:09.259Z,55.59
2018-02-21T14:22:39.274Z,55.44
2018-02-21T14:25:08.896Z,55.24
2018-02-21T14:27:38.758Z,54.79
2018-02-21T14:30:08.535Z,54.73
2018-02-21T14:32:38.993Z,55.18
2018-02-21T14:35:08.626Z,55.60
2018-02-21T14:37:38.244Z,55.01
2018-02-21T14:40:07.793Z,54.32
2018-02-21T14:42:37.638Z,53.67
2018-02-21T14:45:07.195Z,53.17
2018-02-21T14:47:36.826Z,54.03
2018-02-21T14:50:06.257Z,55.13
2018-02-21T14:52:36.668Z,54.60
2018-02-21T14:55:06.244Z,55.61
2018-02-21T14:57:35.888Z,57.12
2018-02-21T15:00:05.588Z,57.79
2018-02-21T15:02:35.093Z,56.78
2018-02-21T15:05:04.628Z,54.63
2018-02-21T15:07:34.241Z,54.24
2018-02-21T15:10:03.895Z,54.92
2018-02-21T15:12:33.790Z,54.40
2018-02-21T15:15:03.736Z,54.53
2018-02-21T15:17:33.904Z,55.10
2018-02-21T15:20:05.257Z,54.95
2018-02-21T15:22:34.932Z,54.99
2018-02-21T15:25:04.788Z,54.91
2018-02-21T15:27:34.732Z,55.75
2018-02-21T15:30:04.541Z,55.79
2018-02-21T15:32:34.944Z,55.78
2018-02-21T15:35:04.306Z,56.11
2018-02-21T15:37:33.794Z,58.04
2018-02-21T15:40:03.199Z,57.80
2018-02-21T15:42:32.556Z,56.60
2018-02-21T15:45:01.882Z,56.05
2018-02-21T15:47:31.319Z,55.79
2018-02-21T15:50:00.716Z,55.64
2018-02-21T15:52:30.244Z,54.68
2018-02-21T15:54:59.777Z,54.16
2018-02-21T15:57:31.865Z,54.27
2018-02-21T16:00:28.088Z,54.70
2018-02-21T16:03:00.164Z,55.61
2018-02-21T16:05:29.874Z,55.44
2018-02-21T16:07:59.348Z,55.64
2018-02-21T16:10:28.931Z,55.25
2018-02-21T16:12:58.622Z,55.00
2018-02-21T16:15:28.871Z,55.00
2018-02-21T16:17:58.392Z,55.07
2018-02-21T16:20:27.753Z,55.60
2018-02-21T16:22:57.160Z,56.18
2018-02-21T16:25:26.531Z,56.26
2018-02-21T16:28:03.942Z,56.54
2018-02-21T16:30:33.566Z,56.18
2018-02-21T16:33:04.180Z,55.81
2018-02-21T16:35:33.913Z,55.94
2018-02-21T16:38:03.490Z,56.47
2018-02-21T16:40:34.040Z,56.67
2018-02-21T16:43:03.770Z,56.72
2018-02-21T16:45:33.371Z,56.84
2018-02-21T16:48:02.930Z,57.40
2018-02-21T16:50:33.336Z,58.46
2018-02-21T16:53:03.014Z,58.74
2018-02-21T16:55:32.746Z,58.66
2018-02-21T16:58:02.300Z,58.36
2018-02-21T17:00:32.583Z,58.23
2018-02-21T17:03:02.207Z,58.08
2018-02-21T17:05:31.968Z,58.15
2018-02-21T17:08:01.741Z,58.30
2018-02-21T17:10:31.425Z,58.18
2018-02-21T17:13:01.094Z,58.04
2018-02-21T17:15:30.640Z,57.92
2018-02-21T17:18:00.464Z,57.97
2018-02-21T17:20:29.963Z,57.82
2018-02-21T17:23:00.168Z,57.79
2018-02-21T17:25:30.544Z,58.26
2018-02-21T17:27:59.931Z,58.50
2018-02-21T17:30:31.614Z,58.60
2018-02-21T17:33:01.667Z,59.27
2018-02-21T17:35:31.571Z,59.47
2018-02-21T17:38:01.192Z,59.11
2018-02-21T17:40:30.502Z,59.28
2018-02-21T17:43:00.187Z,59.59
2018-02-21T17:45:30.725Z,60.05
2018-02-21T17:48:00.168Z,60.46
2018-02-21T17:50:29.588Z,60.37
2018-02-21T17:52:59.661Z,59.89
2018-02-21T17:55:29.023Z,59.74
2018-02-21T17:57:59.770Z,59.91
2018-02-21T18:00:29.479Z,60.54
2018-02-21T18:03:01.588Z,60.40
2018-02-21T18:05:31.867Z,59.80
2018-02-21T18:08:02.867Z,59.77
2018-02-21T18:10:32.813Z,59.83
2018-02-21T18:13:02.536Z,60.00
2018-02-21T18:15:32.241Z,59.54
2018-02-21T18:18:01.954Z,59.39
2018-02-21T18:20:31.358Z,60.11
2018-02-21T18:23:01.037Z,60.50
2018-02-21T18:25:30.516Z,59.72
2018-02-21T18:28:00.299Z,59.33
2018-02-21T18:30:29.710Z,59.84
2018-02-21T18:32:59.997Z,59.96
2018-02-21T18:35:29.763Z,59.47
2018-02-21T18:38:00.180Z,59.92
2018-02-21T18:40:30.269Z,59.84
2018-02-21T18:43:00.973Z,59.57
2018-02-21T18:45:31.635Z,59.82
2018-02-21T18:48:01.283Z,59.58
2018-02-21T18:50:30.907Z,59.55
2018-02-21T18:53:01.631Z,60.01
2018-02-21T18:55:31.150Z,60.42
2018-02-21T18:58:01.358Z,60.38
2018-02-21T19:00:31.290Z,60.02
2018-02-21T19:03:02.021Z,60.78
2018-02-21T19:05:32.795Z,61.40
2018-02-21T19:08:03.558Z,62.14
2018-02-21T19:10:34.273Z,61.89
2018-02-21T19:13:04.805Z,62.31
2018-02-21T19:15:39.170Z,62.43
2018-02-21T19:18:09.583Z,62.75
2018-02-21T19:20:39.488Z,61.81
2018-02-21T19:23:09.279Z,62.04
2018-02-21T19:25:39.126Z,61.73
2018-02-21T19:28:09.907Z,61.90
2018-02-21T19:30:39.711Z,62.09
2018-02-21T19:33:10.469Z,62.57
2018-02-21T19:35:40.764Z,62.77
2018-02-21T19:38:11.994Z,61.92
2018-02-21T19:41:02.588Z,61.47
2018-02-21T19:43:33.228Z,61.74
2018-02-21T19:46:09.428Z,61.80
2018-02-21T19:48:39.939Z,62.02
2018-02-21T19:51:09.714Z,61.38
2018-02-21T19:53:39.362Z,61.59
2018-02-21T19:56:09.083Z,60.92
2018-02-21T19:58:38.793Z,60.60
2018-02-21T20:01:08.577Z,59.72
2018-02-21T20:03:38.066Z,59.88
2018-02-21T20:06:07.675Z,60.31
2018-02-21T20:08:37.191Z,60.41
2018-02-21T20:11:07.367Z,60.51
2018-02-21T20:13:37.633Z,59.68
2018-02-21T20:16:07.293Z,59.72
2018-02-21T20:18:37.166Z,59.08
2018-02-21T20:21:06.570Z,58.48
2018-02-21T20:23:36.102Z,58.38
2018-02-21T20:26:06.696Z,58.63
2018-02-21T20:28:37.263Z,58.81
2018-02-21T20:31:06.701Z,58.27
2018-02-21T20:33:36.486Z,58.83
2018-02-21T20:36:06.208Z,58.76
2018-02-21T20:38:36.082Z,59.26
2018-02-21T20:41:05.704Z,60.02
2018-02-21T20:43:36.174Z,59.92
2018-02-21T20:46:06.556Z,59.76
2018-02-21T20:48:36.593Z,59.46
2018-02-21T20:51:06.561Z,60.00
2018-02-21T20:53:37.695Z,60.18
2018-02-21T20:56:07.438Z,59.58
2018-02-21T20:58:37.603Z,59.71
2018-02-21T21:01:07.452Z,59.18
2018-02-21T21:03:37.261Z,59.67
2018-02-21T21:06:07.500Z,59.69
2018-02-21T21:08:38.074Z,60.97
2018-02-21T21:11:07.923Z,61.38
2018-02-21T21:13:38.693Z,61.34
2018-02-21T21:16:08.249Z,61.11
2018-02-21T21:18:38.071Z,60.92
2018-02-21T21:21:07.772Z,61.48
2018-02-21T21:23:37.682Z,61.46
2018-02-21T21:26:07.957Z,61.05
2018-02-21T21:28:38.407Z,61.38
2018-02-21T21:31:08.577Z,61.46
2018-02-21T21:33:38.211Z,61.58
2018-02-21T21:36:07.622Z,61.50
2018-02-21T21:38:37.428Z,62.03
2018-02-21T21:41:07.171Z,62.63
2018-02-21T21:43:36.994Z,62.76
2018-02-21T21:46:07.133Z,62.79
2018-02-21T21:48:36.631Z,62.68
2018-02-21T21:51:07.130Z,63.09
2018-02-21T21:53:36.963Z,62.36
2018-02-21T21:56:06.846Z,61.66
2018-02-21T21:58:36.923Z,62.49
2018-02-21T22:01:06.659Z,62.28
2018-02-21T22:03:37.220Z,62.02
2018-02-21T22:06:07.061Z,62.12
2018-02-21T22:08:36.824Z,61.52
2018-02-21T22:11:06.598Z,61.31
2018-02-21T22:13:36.631Z,60.46
2018-02-21T22:16:06.320Z,61.21
2018-02-21T22:18:35.663Z,60.96
2018-02-21T22:21:05.090Z,60.79
2018-02-21T22:23:35.184Z,60.79
2018-02-21T22:26:05.939Z,61.28
2018-02-21T22:28:35.558Z,62.26
2018-02-21T22:31:05.132Z,62.32
2018-02-21T22:33:35.331Z,61.97
2018-02-21T22:36:05.660Z,61.58
2018-02-21T22:38:36.197Z,61.28
2018-02-21T22:41:05.843Z,60.97
2018-02-21T22:43:35.870Z,60.44
2018-02-21T22:46:05.554Z,60.79
2018-02-21T22:48:35.027Z,60.85
2018-02-21T22:51:04.750Z,61.12
2018-02-21T22:53:34.761Z,61.13
2018-02-21T22:56:04.660Z,61.15
2018-02-21T22:58:34.782Z,60.99
2018-02-21T23:01:04.537Z,60.72
2018-02-21T23:03:34.125Z,61.18
2018-02-21T23:06:04.531Z,61.04
2018-02-21T23:08:35.196Z,60.62
2018-02-21T23:11:04.715Z,60.30
2018-02-21T23:13:34.540Z,60.78
2018-02-21T23:16:04.047Z,61.35
2018-02-21T23:18:34.610Z,61.77
2018-02-21T23:21:04.208Z,61.25
2018-02-21T23:23:35.294Z,60.23
2018-02-21T23:26:05.452Z,60.99
2018-02-21T23:28:35.062Z,61.13
2018-02-21T23:31:04.647Z,60.81
2018-02-21T23:33:34.529Z,60.11
2018-02-21T23:36:04.403Z,60.44
2018-02-21T23:38:34.247Z,60.65
2018-02-21T23:41:04.054Z,59.87
2018-02-21T23:43:33.921Z,59.51
2018-02-21T23:46:03.822Z,58.62
2018-02-21T23:48:33.624Z,59.28
2018-02-21T23:51:03.404Z,57.03
2018-02-21T23:53:34.172Z,56.88
2018-02-21T23:56:04.493Z,57.02
2018-02-21T23:58:34.328Z,57.03
